Time;durP1;ratioP1;P1;durP2;ratioP2;P2;SDS_P1;SDS_P2;PMS_P1;PMS_P2;Temp;Humidity;BMP_temperature;BMP_pressure;BME280_temperature;BME280_humidity;BME280_pressure;Samples;Min_cycle;Max_cycle;Signal;HPM_P1;HPM_P2
2023/04/24 00:01:36;;;;;;;;;;;11.30;75.70;;;-151.14;100.00;62537.16;5028083;28;19992;-87
2023/04/24 00:04:06;;;;;;;;;;;11.30;75.90;;;-151.14;100.00;62537.16;4994623;28;19935;-87
2023/04/24 00:06:36;;;;;;;;;;;11.30;75.90;;;-151.14;100.00;62537.16;4978999;28;19928;-87
2023/04/24 00:09:04;;;;;;;;;;;11.30;75.90;;;-151.14;100.00;62537.16;4978949;28;19921;-87
2023/04/24 00:11:33;;;;;;;;;;;11.30;75.90;;;-151.14;100.00;62537.16;4979091;28;19922;-87
2023/04/24 00:14:01;;;;;;;;;;;11.30;75.90;;;-151.14;100.00;62537.16;4966772;28;19944;-87
2023/04/24 00:16:29;;;;;;;;;;;11.30;75.80;;;-151.14;100.00;62537.16;4975742;28;19922;-88
2023/04/24 00:18:57;;;;;;;;;;;11.30;76.10;;;-151.14;100.00;62537.16;4975538;28;19930;-87
2023/04/24 00:21:26;;;;;;;;;;;11.30;76.10;;;-151.14;100.00;62537.16;4975511;28;19929;-87
2023/04/24 00:23:54;;;;;;;;;;;11.30;75.80;;;-151.14;100.00;62537.16;4975315;28;19928;-88
2023/04/24 00:26:22;;;;;;;;;;;11.30;75.70;;;-151.14;100.00;62537.16;4974777;28;19922;-87
2023/04/24 00:28:51;;;;;;;;;;;11.30;75.70;;;-151.14;100.00;62537.16;4975353;28;19928;-87
2023/04/24 00:31:19;;;;;;;;;;;11.30;75.80;;;-151.14;100.00;62537.16;4991822;28;19928;-87
2023/04/24 00:33:48;;;;;;;;;;;11.30;75.80;;;-151.14;100.00;62537.16;4975237;28;20231;-87
2023/04/24 00:36:16;;;;;;;;;;;11.30;75.80;;;-151.14;100.00;62537.16;4990936;28;20105;-87
2023/04/24 00:38:46;;;;;;;;;;;11.30;75.70;;;-151.14;100.00;62537.16;4991435;28;19922;-87
2023/04/24 00:41:14;;;;;;;;;;;11.30;75.60;;;-151.14;100.00;62537.16;4975374;28;19922;-87
2023/04/24 00:43:42;;;;;;;;;;;11.30;75.70;;;-151.14;100.00;62537.16;4991383;28;19928;-88
2023/04/24 00:46:10;;;;;;;;;;;11.30;75.70;;;-151.14;100.00;62537.16;4974633;28;20128;-87
2023/04/24 00:48:39;;;;;;;;;;;11.30;75.70;;;-151.14;100.00;62537.16;4975228;28;19922;-87
2023/04/24 00:51:08;;;;;;;;;;;11.30;75.70;;;-151.14;100.00;62537.16;4959236;28;19922;-87
2023/04/24 00:53:37;;;;;;;;;;;11.20;75.60;;;-151.14;100.00;62537.16;4991126;28;19936;-87
2023/04/24 00:56:06;;;;;;;;;;;11.20;75.60;;;-151.14;100.00;62537.16;4958388;28;19922;-87
2023/04/24 00:58:34;;;;;;;;;;;11.30;75.70;;;-151.14;100.00;62537.16;4975156;28;19944;-87
2023/04/24 01:01:02;;;;;;;;;;;11.20;75.70;;;-151.14;100.00;62537.16;4975070;28;19922;-87
2023/04/24 01:03:31;;;;;;;;;;;11.20;75.60;;;-151.14;100.00;62537.16;4974919;28;20125;-87
2023/04/24 01:05:59;;;;;;;;;;;11.20;75.70;;;-151.14;100.00;62537.16;4974336;28;19922;-88
2023/04/24 01:08:27;;;;;;;;;;;11.20;75.70;;;-151.14;100.00;62537.16;4974555;28;19921;-87
2023/04/24 01:10:55;;;;;;;;;;;11.30;75.90;;;-151.14;100.00;62537.16;4974309;28;19922;-87
2023/04/24 01:13:25;;;;;;;;;;;11.20;75.80;;;-151.14;100.00;62537.16;4978093;28;19922;-87
2023/04/24 01:15:53;;;;;;;;;;;11.20;75.60;;;-151.14;100.00;62537.16;4974222;28;19928;-87
2023/04/24 01:18:21;;;;;;;;;;;11.20;75.70;;;-151.14;100.00;62537.16;4990958;28;20222;-87
2023/04/24 01:20:51;;;;;;;;;;;11.20;75.70;;;-151.14;100.00;62537.16;4990888;28;19922;-87
2023/04/24 01:23:21;;;;;;;;;;;11.20;75.90;;;-151.14;100.00;62537.16;4974630;28;19936;-87
2023/04/24 01:25:49;;;;;;;;;;;11.20;75.70;;;-151.14;100.00;62537.16;4991381;28;20213;-87
2023/04/24 01:28:17;;;;;;;;;;;11.20;75.80;;;-151.14;100.00;62537.16;4974763;28;19922;-87
2023/04/24 01:30:45;;;;;;;;;;;11.20;75.60;;;-151.14;100.00;62537.16;5007177;28;19928;-87
2023/04/24 01:33:13;;;;;;;;;;;11.20;75.70;;;-151.14;100.00;62537.16;4990654;28;19922;-87
2023/04/24 01:35:41;;;;;;;;;;;11.20;75.60;;;-151.14;100.00;62537.16;4989922;28;19922;-87
2023/04/24 01:38:09;;;;;;;;;;;11.20;75.60;;;-151.14;100.00;62537.16;4974590;28;19928;-87
2023/04/24 01:40:39;;;;;;;;;;;11.20;75.80;;;-151.14;100.00;62537.16;4974928;28;19922;-87
2023/04/24 01:43:07;;;;;;;;;;;11.20;75.60;;;-151.14;100.00;62537.16;4990768;28;19922;-87
2023/04/24 01:45:35;;;;;;;;;;;11.20;75.60;;;-151.14;100.00;62537.16;4973928;28;20225;-87
2023/04/24 01:48:06;;;;;;;;;;;11.20;75.60;;;-151.14;100.00;62537.16;4974448;28;20205;-87
2023/04/24 01:50:34;;;;;;;;;;;11.20;75.60;;;-151.14;100.00;62537.16;4974346;28;19922;-87
2023/04/24 01:53:02;;;;;;;;;;;11.20;75.70;;;-151.14;100.00;62537.16;4990445;28;19922;-87
2023/04/24 01:55:30;;;;;;;;;;;11.20;75.50;;;-151.14;100.00;62537.16;4990835;28;19921;-87
2023/04/24 01:57:59;;;;;;;;;;;11.20;75.50;;;-151.14;100.00;62537.16;4974478;28;19928;-87
2023/04/24 02:00:27;;;;;;;;;;;11.20;75.50;;;-151.14;100.00;62537.16;4974219;28;19922;-87
2023/04/24 02:02:55;;;;;;;;;;;11.20;75.30;;;-151.14;100.00;62537.16;4990462;28;19944;-87
2023/04/24 02:05:24;;;;;;;;;;;11.20;75.50;;;-151.14;100.00;62537.16;4973439;28;19922;-87
2023/04/24 02:07:52;;;;;;;;;;;11.20;75.30;;;-151.14;100.00;62537.16;4974350;28;19944;-87
2023/04/24 02:10:20;;;;;;;;;;;11.20;75.40;;;-151.14;100.00;62537.16;4991456;28;19921;-87
2023/04/24 02:12:48;;;;;;;;;;;11.20;75.40;;;-151.14;100.00;62537.16;4992111;28;19922;-87
2023/04/24 02:15:18;;;;;;;;;;;11.20;75.50;;;-151.14;100.00;62537.16;4992698;28;19928;-87
2023/04/24 02:17:46;;;;;;;;;;;11.10;75.60;;;-151.14;100.00;62537.16;5009875;28;19928;-87
2023/04/24 02:20:14;;;;;;;;;;;11.20;75.50;;;-151.14;100.00;62537.16;4992591;28;19927;-87
2023/04/24 02:22:42;;;;;;;;;;;11.10;75.40;;;-151.14;100.00;62537.16;5010900;28;19921;-87
2023/04/24 02:25:10;;;;;;;;;;;11.10;75.50;;;-151.14;100.00;62537.16;4996140;28;19921;-87
2023/04/24 02:27:39;;;;;;;;;;;11.10;75.50;;;-151.14;100.00;62537.16;4996847;28;19928;-87
2023/04/24 02:30:08;;;;;;;;;;;11.10;75.60;;;-151.14;100.00;62537.16;4996543;28;19922;-87
2023/04/24 02:32:38;;;;;;;;;;;11.10;75.40;;;-151.14;100.00;62537.16;4996750;28;19928;-87
2023/04/24 02:35:07;;;;;;;;;;;11.10;75.70;;;-151.14;100.00;62537.16;4995982;28;20235;-87
2023/04/24 02:37:35;;;;;;;;;;;11.10;75.60;;;-151.14;100.00;62537.16;4996554;28;19921;-87
2023/04/24 02:40:05;;;;;;;;;;;11.10;75.60;;;-151.14;100.00;62537.16;5012800;28;19928;-87
2023/04/24 02:42:33;;;;;;;;;;;11.10;75.80;;;-151.14;100.00;62537.16;4996542;28;19932;-87
2023/04/24 02:45:01;;;;;;;;;;;11.10;75.50;;;-151.14;100.00;62537.16;4995940;28;20209;-87
2023/04/24 02:47:30;;;;;;;;;;;11.10;75.50;;;-151.14;100.00;62537.16;4996384;28;19922;-87
2023/04/24 02:49:59;;;;;;;;;;;11.00;75.50;;;-151.14;100.00;62537.16;4996321;28;19922;-86
2023/04/24 02:52:27;;;;;;;;;;;11.10;75.60;;;-151.14;100.00;62537.16;5012687;28;20259;-87
2023/04/24 02:54:55;;;;;;;;;;;11.10;75.50;;;-151.14;100.00;62537.16;4995751;28;19936;-87
2023/04/24 02:57:23;;;;;;;;;;;11.10;75.60;;;-151.14;100.00;62537.16;4996528;28;20205;-87
2023/04/24 02:59:52;;;;;;;;;;;11.10;75.50;;;-151.14;100.00;62537.16;4996254;28;19922;-87
2023/04/24 03:02:20;;;;;;;;;;;11.10;75.60;;;-151.14;100.00;62537.16;4995967;28;19928;-87
2023/04/24 03:04:48;;;;;;;;;;;11.10;75.70;;;-151.14;100.00;62537.16;4979676;28;19921;-87
2023/04/24 03:07:20;;;;;;;;;;;11.10;75.60;;;-151.14;100.00;62537.16;4979880;28;19922;-87
2023/04/24 03:09:48;;;;;;;;;;;11.10;75.60;;;-151.14;100.00;62537.16;4995982;28;20205;-87
2023/04/24 03:12:17;;;;;;;;;;;11.10;75.50;;;-151.14;100.00;62537.16;4996351;28;19922;-87
2023/04/24 03:14:45;;;;;;;;;;;11.00;75.70;;;-151.14;100.00;62537.16;4995537;28;19922;-87
2023/04/24 03:17:14;;;;;;;;;;;11.00;75.50;;;-151.14;100.00;62537.16;5012277;28;19928;-86
2023/04/24 03:19:42;;;;;;;;;;;11.10;75.70;;;-151.14;100.00;62537.16;4995954;28;20116;-86
2023/04/24 03:22:12;;;;;;;;;;;11.10;75.60;;;-151.14;100.00;62537.16;4996127;28;19921;-86
2023/04/24 03:24:45;;;;;;;;;;;11.00;75.50;;;-151.14;100.00;62537.16;4995275;28;19921;-87
2023/04/24 03:27:16;;;;;;;;;;;11.00;75.50;;;-151.14;100.00;62537.16;5016000;28;19922;-86
2023/04/24 03:30:07;;;;;;;;;;;11.00;75.50;;;-151.14;100.00;62537.16;4976322;28;19922;-87
2023/04/24 03:32:44;;;;;;;;;;;11.00;75.80;;;-151.14;100.00;62537.16;4992217;28;19921;-86
2023/04/24 03:35:14;;;;;;;;;;;11.00;75.70;;;-151.14;100.00;62537.16;4991923;28;20217;-86
2023/04/24 03:37:43;;;;;;;;;;;11.00;75.60;;;-151.14;100.00;62537.16;4976215;28;19921;-86
2023/04/24 03:40:33;;;;;;;;;;;11.00;75.50;;;-151.14;100.00;62537.16;4992340;28;19922;-85
2023/04/24 03:43:02;;;;;;;;;;;11.00;75.60;;;-151.14;100.00;62537.16;4992351;28;19922;-86
2023/04/24 03:45:30;;;;;;;;;;;11.00;75.60;;;-151.14;100.00;62537.16;4975734;28;19937;-86
2023/04/24 03:47:59;;;;;;;;;;;11.00;75.70;;;-151.14;100.00;62537.16;4976210;28;19922;-87
2023/04/24 03:50:28;;;;;;;;;;;11.00;75.60;;;-151.14;100.00;62537.16;4992239;28;19985;-86
2023/04/24 03:52:57;;;;;;;;;;;11.00;75.50;;;-151.14;100.00;62537.16;4976000;28;19922;-85
2023/04/24 03:55:37;;;;;;;;;;;11.00;75.50;;;-151.14;100.00;62537.16;5007972;28;19929;-86
2023/04/24 03:58:05;;;;;;;;;;;11.00;75.30;;;-151.14;100.00;62537.16;4976330;28;20209;-86
2023/04/24 04:00:34;;;;;;;;;;;11.00;75.20;;;-151.14;100.00;62537.16;4992187;28;19929;-85
2023/04/24 04:03:22;;;;;;;;;;;11.10;75.20;;;-151.14;100.00;62537.16;5001280;28;19928;-86
2023/04/24 04:05:51;;;;;;;;;;;11.10;74.80;;;-151.14;100.00;62537.16;4991348;28;20210;-86
2023/04/24 04:08:19;;;;;;;;;;;11.10;74.60;;;-151.14;100.00;62537.16;4991908;28;19921;-86
2023/04/24 04:10:48;;;;;;;;;;;11.10;74.70;;;-151.14;100.00;62537.16;4991973;28;19922;-87
2023/04/24 04:13:17;;;;;;;;;;;11.10;74.50;;;-151.14;100.00;62537.16;4985954;28;19922;-86
2023/04/24 04:15:45;;;;;;;;;;;11.10;74.70;;;-151.14;100.00;62537.16;4988167;28;19922;-86
2023/04/24 04:18:13;;;;;;;;;;;11.10;74.70;;;-151.14;100.00;62537.16;4972350;28;19922;-86
2023/04/24 04:20:41;;;;;;;;;;;11.10;74.60;;;-151.14;100.00;62537.16;4972552;28;19922;-86
2023/04/24 04:23:11;;;;;;;;;;;11.10;74.80;;;-151.14;100.00;62537.16;4956306;28;19922;-86
2023/04/24 04:25:53;;;;;;;;;;;11.10;75.20;;;-151.14;100.00;62537.16;4971874;28;20213;-85
2023/04/24 04:28:26;;;;;;;;;;;11.10;75.50;;;-151.14;100.00;62537.16;4972348;28;19922;-87
2023/04/24 04:30:55;;;;;;;;;;;11.10;75.50;;;-151.14;100.00;62537.16;4956320;28;20090;-86
2023/04/24 04:33:25;;;;;;;;;;;11.10;75.20;;;-151.14;100.00;62537.16;4972059;28;19923;-87
2023/04/24 04:35:56;;;;;;;;;;;11.10;75.10;;;-151.14;100.00;62537.16;4971773;28;19922;-87
2023/04/24 04:38:26;;;;;;;;;;;11.10;75.10;;;-151.14;100.00;62537.16;4988387;28;19929;-86
2023/04/24 04:41:18;;;;;;;;;;;11.10;75.20;;;-151.14;100.00;62537.16;4972027;28;19922;-86
2023/04/24 04:43:47;;;;;;;;;;;11.20;74.80;;;-151.14;100.00;62537.16;4988332;28;19922;-86
2023/04/24 04:46:16;;;;;;;;;;;11.20;74.50;;;-151.14;100.00;62537.16;4970950;28;19929;-86
2023/04/24 04:49:01;;;;;;;;;;;11.20;74.30;;;-151.14;100.00;62537.16;4972032;28;19922;-86
2023/04/24 04:51:29;;;;;;;;;;;11.30;74.40;;;-151.14;100.00;62537.16;4955979;28;19922;-87
2023/04/24 04:53:57;;;;;;;;;;;11.30;74.10;;;-151.14;100.00;62537.16;4956003;28;19929;-87
2023/04/24 04:56:27;;;;;;;;;;;11.30;73.70;;;-151.14;100.00;62537.16;4971658;28;19937;-87
2023/04/24 04:58:55;;;;;;;;;;;11.40;73.50;;;-151.14;100.00;62537.16;4991081;28;19928;-87
2023/04/24 05:01:24;;;;;;;;;;;11.40;73.60;;;-151.14;100.00;62537.16;4958703;28;19928;-85
2023/04/24 05:03:52;;;;;;;;;;;11.40;73.80;;;-151.14;100.00;62537.16;4959002;28;19922;-87
2023/04/24 05:06:20;;;;;;;;;;;11.40;74.10;;;-151.14;100.00;62537.16;4974275;28;20098;-87
2023/04/24 05:08:49;;;;;;;;;;;11.50;74.80;;;-151.14;100.00;62537.16;4974922;28;19922;-86
2023/04/24 05:11:29;;;;;;;;;;;11.50;75.20;;;-151.14;100.00;62537.16;4958950;28;19922;-86
2023/04/24 05:13:58;;;;;;;;;;;11.60;75.30;;;-151.14;100.00;62537.16;4969858;28;19922;-87
2023/04/24 05:16:34;;;;;;;;;;;11.60;75.90;;;-151.14;100.00;62537.16;4994175;28;19944;-87
2023/04/24 05:19:03;;;;;;;;;;;11.70;76.00;;;-151.14;100.00;62537.16;4994113;28;19922;-87
2023/04/24 05:21:36;;;;;;;;;;;11.80;75.80;;;-151.14;100.00;62537.16;4994275;28;19921;-86
2023/04/24 05:24:04;;;;;;;;;;;11.90;75.40;;;-151.14;100.00;62537.16;4977348;28;19921;-87
2023/04/24 05:26:47;;;;;;;;;;;12.00;74.80;;;-151.14;100.00;62537.16;4994361;28;19936;-86
2023/04/24 05:29:18;;;;;;;;;;;12.00;74.40;;;-151.14;100.00;62537.16;5010533;28;19922;-86
2023/04/24 05:31:47;;;;;;;;;;;12.10;74.20;;;-151.14;100.00;62537.16;5010322;28;19921;-86
2023/04/24 05:34:16;;;;;;;;;;;12.20;74.10;;;-151.14;100.00;62537.16;5009805;28;19922;-86
2023/04/24 05:36:46;;;;;;;;;;;12.20;73.90;;;-151.14;100.00;62537.16;4994161;28;19921;-87
2023/04/24 05:39:14;;;;;;;;;;;12.30;73.80;;;-151.14;100.00;62537.16;4977821;28;19922;-87
2023/04/24 05:41:42;;;;;;;;;;;12.30;73.70;;;-151.14;100.00;62537.16;4994051;28;19928;-87
2023/04/24 05:44:12;;;;;;;;;;;12.30;73.70;;;-151.14;100.00;62537.16;4977163;28;19932;-86
2023/04/24 05:46:40;;;;;;;;;;;12.30;73.60;;;-151.14;100.00;62537.16;4977766;28;19928;-85
2023/04/24 05:49:08;;;;;;;;;;;12.40;74.40;;;-151.14;100.00;62537.16;4977805;28;19922;-87
2023/04/24 05:51:36;;;;;;;;;;;12.40;73.50;;;-151.14;100.00;62537.16;5010131;28;20357;-87
2023/04/24 05:54:05;;;;;;;;;;;12.40;73.50;;;-151.14;100.00;62537.16;4992988;28;19928;-88
2023/04/24 05:56:33;;;;;;;;;;;12.40;73.40;;;-151.14;100.00;62537.16;4995601;28;19952;-86
2023/04/24 05:59:03;;;;;;;;;;;12.40;73.40;;;-151.14;100.00;62537.16;4997176;28;19929;-86
2023/04/24 06:01:33;;;;;;;;;;;12.50;73.40;;;-151.14;100.00;62537.16;4997365;28;20109;-87
2023/04/24 06:04:10;;;;;;;;;;;12.50;73.40;;;-151.14;100.00;62537.16;5012962;28;19921;-86
2023/04/24 06:06:38;;;;;;;;;;;12.50;73.40;;;-151.14;100.00;62537.16;4997077;28;19921;-86
2023/04/24 06:09:06;;;;;;;;;;;12.50;73.40;;;-151.14;100.00;62537.16;4997106;28;19928;-86
2023/04/24 06:11:35;;;;;;;;;;;12.50;73.40;;;-151.14;100.00;62537.16;4997016;28;19930;-86
2023/04/24 06:14:04;;;;;;;;;;;12.50;73.40;;;-151.14;100.00;62537.16;4980232;28;19928;-88
2023/04/24 06:16:43;;;;;;;;;;;12.50;73.30;;;-151.14;100.00;62537.16;4996980;28;20116;-87
2023/04/24 06:19:24;;;;;;;;;;;12.50;73.50;;;-151.14;100.00;62537.16;4980629;28;19928;-88
2023/04/24 06:21:52;;;;;;;;;;;12.50;73.60;;;-151.14;100.00;62537.16;4996797;28;19930;-87
2023/04/24 06:24:20;;;;;;;;;;;12.50;73.50;;;-151.14;100.00;62537.16;4996149;28;19936;-89
2023/04/24 06:26:48;;;;;;;;;;;12.60;73.60;;;-151.14;100.00;62537.16;4996903;28;19922;-88
2023/04/24 06:29:16;;;;;;;;;;;12.60;73.50;;;-151.14;100.00;62537.16;4996767;28;19922;-86
2023/04/24 06:31:46;;;;;;;;;;;12.60;73.40;;;-151.14;100.00;62537.16;4996737;28;19921;-87
2023/04/24 06:34:14;;;;;;;;;;;12.60;73.40;;;-151.14;100.00;62537.16;5012501;28;20243;-87
2023/04/24 06:36:42;;;;;;;;;;;12.60;73.40;;;-151.14;100.00;62537.16;4980550;28;19921;-87
2023/04/24 06:39:10;;;;;;;;;;;12.60;73.30;;;-151.14;100.00;62537.16;4996547;28;19922;-87
2023/04/24 06:41:39;;;;;;;;;;;12.70;73.40;;;-151.14;100.00;62537.16;4980509;28;19921;-87
2023/04/24 06:44:07;;;;;;;;;;;12.70;73.40;;;-151.14;100.00;62537.16;5012359;28;19921;-87
2023/04/24 06:46:35;;;;;;;;;;;12.70;73.40;;;-151.14;100.00;62537.16;5013996;28;19922;-88
2023/04/24 06:49:05;;;;;;;;;;;12.80;73.30;;;-151.14;100.00;62537.16;4995971;28;19921;-88
2023/04/24 06:51:33;;;;;;;;;;;12.80;73.20;;;-151.14;100.00;62537.16;4980309;28;19921;-87
2023/04/24 06:54:01;;;;;;;;;;;12.70;73.10;;;-151.14;100.00;62537.16;4995847;28;20213;-88
2023/04/24 06:56:29;;;;;;;;;;;12.70;73.10;;;-151.14;100.00;62537.16;4996475;28;19928;-87
2023/04/24 06:58:58;;;;;;;;;;;12.80;73.10;;;-151.14;100.00;62537.16;4979981;28;19922;-86
2023/04/24 07:01:26;;;;;;;;;;;12.80;73.00;;;-151.14;100.00;62537.16;4996309;28;19921;-87
2023/04/24 07:03:54;;;;;;;;;;;12.80;73.10;;;-151.14;100.00;62537.16;5012457;28;19935;-87
2023/04/24 07:06:24;;;;;;;;;;;12.80;72.90;;;-151.14;100.00;62537.16;5012045;28;19922;-87
2023/04/24 07:08:52;;;;;;;;;;;12.80;73.00;;;-151.14;100.00;62537.16;4995466;28;19921;-87
2023/04/24 07:11:20;;;;;;;;;;;12.70;73.00;;;-151.14;100.00;62537.16;4980203;28;20143;-88
2023/04/24 07:13:48;;;;;;;;;;;12.80;73.00;;;-151.14;100.00;62537.16;4995987;28;19921;-87
2023/04/24 07:16:16;;;;;;;;;;;12.80;73.10;;;-151.14;100.00;62537.16;4995330;28;19928;-87
2023/04/24 07:18:44;;;;;;;;;;;12.80;73.10;;;-151.14;100.00;62537.16;5013445;28;20197;-87
2023/04/24 07:21:13;;;;;;;;;;;12.70;73.10;;;-151.14;100.00;62537.16;4996095;28;19928;-87
2023/04/24 07:23:42;;;;;;;;;;;12.70;73.20;;;-151.14;100.00;62537.16;4995857;28;19922;-87
2023/04/24 07:26:10;;;;;;;;;;;12.70;73.20;;;-151.14;100.00;62537.16;5012729;28;19921;-87
2023/04/24 07:28:38;;;;;;;;;;;12.70;73.20;;;-151.14;100.00;62537.16;4995633;28;19944;-87
2023/04/24 07:31:06;;;;;;;;;;;12.70;73.30;;;-151.14;100.00;62537.16;4980134;28;19936;-87
2023/04/24 07:33:35;;;;;;;;;;;12.70;73.20;;;-151.14;100.00;62537.16;4995750;28;20144;-86
2023/04/24 07:36:04;;;;;;;;;;;12.70;73.30;;;-151.14;100.00;62537.16;4995011;28;19921;-87
2023/04/24 07:38:32;;;;;;;;;;;12.70;73.30;;;-151.14;100.00;62537.16;4995672;28;20209;-87
2023/04/24 07:41:02;;;;;;;;;;;12.80;73.20;;;-151.14;100.00;62537.16;5012024;28;19922;-87
2023/04/24 07:43:30;;;;;;;;;;;12.80;73.20;;;-151.14;100.00;62537.16;4995532;28;19927;-87
2023/04/24 07:45:58;;;;;;;;;;;12.80;73.10;;;-151.14;100.00;62537.16;5011185;28;20209;-88
2023/04/24 07:48:26;;;;;;;;;;;12.80;73.10;;;-151.14;100.00;62537.16;5012114;28;20209;-87
2023/04/24 07:50:54;;;;;;;;;;;12.80;73.10;;;-151.14;100.00;62537.16;4995448;28;19928;-88
2023/04/24 07:53:22;;;;;;;;;;;12.80;73.10;;;-151.14;100.00;62537.16;5011792;28;19921;-87
2023/04/24 07:55:51;;;;;;;;;;;12.80;73.10;;;-151.14;100.00;62537.16;4978542;28;19928;-87
2023/04/24 07:58:21;;;;;;;;;;;12.80;73.10;;;-151.14;100.00;62537.16;4995205;28;19928;-87
2023/04/24 08:00:49;;;;;;;;;;;12.80;72.90;;;-151.14;100.00;62537.16;4995714;28;19922;-87
2023/04/24 08:03:19;;;;;;;;;;;12.80;72.90;;;-151.14;100.00;62537.16;4979146;28;19928;-87
2023/04/24 08:05:47;;;;;;;;;;;12.80;72.90;;;-151.14;100.00;62537.16;4994582;28;19943;-88
2023/04/24 08:08:15;;;;;;;;;;;12.80;73.00;;;-151.14;100.00;62537.16;4995095;28;19927;-87
2023/04/24 08:10:43;;;;;;;;;;;12.90;73.10;;;-151.14;100.00;62537.16;4979220;28;20231;-88
2023/04/24 08:13:12;;;;;;;;;;;12.90;73.10;;;-151.14;100.00;62537.16;4978956;28;19922;-87
2023/04/24 08:15:41;;;;;;;;;;;12.90;73.10;;;-151.14;100.00;62537.16;4994640;28;20309;-87
2023/04/24 08:18:11;;;;;;;;;;;12.90;73.10;;;-151.14;100.00;62537.16;4995092;28;19928;-89
2023/04/24 08:20:39;;;;;;;;;;;12.90;73.10;;;-151.14;100.00;62537.16;4994030;28;19921;-87
2023/04/24 08:23:07;;;;;;;;;;;12.90;73.10;;;-151.14;100.00;62537.16;4978914;28;19928;-88
2023/04/24 08:25:36;;;;;;;;;;;12.90;73.10;;;-151.14;100.00;62537.16;4978276;28;20121;-88
2023/04/24 08:28:04;;;;;;;;;;;12.90;73.10;;;-151.14;100.00;62537.16;4994918;28;19928;-88
2023/04/24 08:30:32;;;;;;;;;;;12.90;73.10;;;-151.14;100.00;62537.16;4978791;28;19922;-88
2023/04/24 08:33:02;;;;;;;;;;;12.90;73.10;;;-151.14;100.00;62537.16;5011216;28;19928;-87
2023/04/24 08:35:30;;;;;;;;;;;12.80;73.00;;;-151.14;100.00;62537.16;5010684;28;19971;-88
2023/04/24 08:37:58;;;;;;;;;;;12.90;73.10;;;-151.14;100.00;62537.16;5003224;28;20217;-88
2023/04/24 08:40:29;;;;;;;;;;;12.80;73.10;;;-151.14;100.00;62537.16;4975184;28;20231;-88
2023/04/24 08:42:57;;;;;;;;;;;12.80;73.10;;;-151.14;100.00;62537.16;4975145;28;20117;-87
2023/04/24 08:45:25;;;;;;;;;;;12.80;73.20;;;-151.14;100.00;62537.16;4974412;28;19922;-88
2023/04/24 08:47:54;;;;;;;;;;;12.80;73.30;;;-151.14;100.00;62537.16;4992453;28;19922;-87
2023/04/24 08:50:23;;;;;;;;;;;12.80;73.30;;;-151.14;100.00;62537.16;4975320;28;19921;-87
2023/04/24 08:52:53;;;;;;;;;;;12.80;73.30;;;-151.14;100.00;62537.16;5003492;28;19922;-88
2023/04/24 08:55:21;;;;;;;;;;;12.80;73.50;;;-151.14;100.00;62537.16;4994235;28;19921;-87
2023/04/24 08:57:51;;;;;;;;;;;12.80;73.40;;;-151.14;100.00;62537.16;4994586;28;19922;-88
2023/04/24 09:00:21;;;;;;;;;;;12.80;73.40;;;-151.14;100.00;62537.16;5010984;28;19928;-89
2023/04/24 09:02:50;;;;;;;;;;;12.80;73.50;;;-151.14;100.00;62537.16;4994458;28;19921;-87
2023/04/24 09:05:18;;;;;;;;;;;12.80;73.50;;;-151.14;100.00;62537.16;4994419;28;19928;-88
2023/04/24 09:07:50;;;;;;;;;;;12.80;73.50;;;-151.14;100.00;62537.16;4978234;28;19972;-87
2023/04/24 09:10:18;;;;;;;;;;;12.80;73.60;;;-151.14;100.00;62537.16;4994442;28;20117;-88
2023/04/24 09:12:46;;;;;;;;;;;12.80;73.40;;;-151.14;100.00;62537.16;4994421;28;19936;-89
2023/04/24 09:15:15;;;;;;;;;;;12.70;73.60;;;-151.14;100.00;62537.16;4993742;28;19928;-88
2023/04/24 09:17:43;;;;;;;;;;;12.70;73.70;;;-151.14;100.00;62537.16;4978035;28;19922;-89
2023/04/24 09:20:11;;;;;;;;;;;12.70;73.90;;;-151.14;100.00;62537.16;5010292;28;19921;-89
2023/04/24 09:22:39;;;;;;;;;;;12.70;74.00;;;-151.14;100.00;62537.16;4993965;28;20124;-88
2023/04/24 09:25:12;;;;;;;;;;;12.60;74.00;;;-151.14;100.00;62537.16;4993591;28;19921;-89
2023/04/24 09:27:43;;;;;;;;;;;12.60;74.00;;;-151.14;100.00;62537.16;5010449;28;19928;-87
2023/04/24 09:30:11;;;;;;;;;;;12.50;74.20;;;-151.14;100.00;62537.16;4977976;28;19928;-88
2023/04/24 09:32:41;;;;;;;;;;;12.50;74.40;;;-151.14;100.00;62537.16;4997366;28;19921;-88
2023/04/24 09:35:10;;;;;;;;;;;12.50;74.50;;;-151.14;100.00;62537.16;4996871;28;19944;-87
2023/04/24 09:37:39;;;;;;;;;;;12.50;74.80;;;-151.14;100.00;62537.16;4997536;28;19926;-86
2023/04/24 09:40:16;;;;;;;;;;;12.50;74.70;;;-151.14;100.00;62537.16;4997503;28;20117;-87
2023/04/24 09:42:47;;;;;;;;;;;12.50;74.60;;;-151.14;100.00;62537.16;4997340;28;19928;-89
2023/04/24 09:45:16;;;;;;;;;;;12.50;74.70;;;-151.14;100.00;62537.16;4996759;28;20121;-88
2023/04/24 09:47:44;;;;;;;;;;;12.40;74.60;;;-151.14;100.00;62537.16;4997522;28;19928;-89
2023/04/24 09:50:16;;;;;;;;;;;12.40;74.80;;;-151.14;100.00;62537.16;4997221;28;19927;-87
2023/04/24 09:52:44;;;;;;;;;;;12.40;74.90;;;-151.14;100.00;62537.16;4981183;28;19921;-87
2023/04/24 09:55:16;;;;;;;;;;;12.40;75.00;;;-151.14;100.00;62537.16;4996561;28;19928;-88
2023/04/24 09:57:51;;;;;;;;;;;12.30;75.20;;;-151.14;100.00;62537.16;4981191;28;19922;-88
2023/04/24 10:00:25;;;;;;;;;;;12.30;75.20;;;-151.14;100.00;62537.16;4981236;28;20217;-88
2023/04/24 10:02:58;;;;;;;;;;;12.30;75.40;;;-151.14;100.00;62537.16;4996929;28;19929;-87
2023/04/24 10:05:28;;;;;;;;;;;12.30;75.40;;;-151.14;100.00;62537.16;5012853;28;19922;-87
2023/04/24 10:08:01;;;;;;;;;;;12.30;75.50;;;-151.14;100.00;62537.16;4981022;28;20235;-88
2023/04/24 10:10:31;;;;;;;;;;;12.30;75.60;;;-151.14;100.00;62537.16;4996887;28;19921;-88
2023/04/24 10:12:59;;;;;;;;;;;12.30;75.60;;;-151.14;100.00;62537.16;4996814;28;19921;-89
2023/04/24 10:15:27;;;;;;;;;;;12.30;75.70;;;-151.14;100.00;62537.16;4980408;28;19922;-88
2023/04/24 10:17:55;;;;;;;;;;;12.20;75.60;;;-151.14;100.00;62537.16;4996781;28;19921;-89
2023/04/24 10:20:24;;;;;;;;;;;12.20;75.70;;;-151.14;100.00;62537.16;5013317;28;19927;-88
2023/04/24 10:22:53;;;;;;;;;;;12.30;75.70;;;-151.14;100.00;62537.16;4996666;28;19922;-87
2023/04/24 10:25:22;;;;;;;;;;;12.20;75.60;;;-151.14;100.00;62537.16;4996293;28;19928;-90
2023/04/24 10:27:52;;;;;;;;;;;12.30;75.90;;;-151.14;100.00;62537.16;4996696;28;19922;-89
2023/04/24 10:30:21;;;;;;;;;;;12.20;75.80;;;-151.14;100.00;62537.16;4996740;28;20121;-88
2023/04/24 10:32:49;;;;;;;;;;;12.20;75.80;;;-151.14;100.00;62537.16;5013189;28;19921;-90
2023/04/24 10:35:17;;;;;;;;;;;12.20;75.80;;;-151.14;100.00;62537.16;4996104;28;20239;-87
2023/04/24 10:37:46;;;;;;;;;;;12.20;75.90;;;-151.14;100.00;62537.16;4980653;28;20102;-89
2023/04/24 10:40:18;;;;;;;;;;;12.20;75.90;;;-151.14;100.00;62537.16;4980274;28;19922;-88
2023/04/24 10:42:48;;;;;;;;;;;12.20;75.90;;;-151.14;100.00;62537.16;4995553;28;19958;-87
2023/04/24 10:45:21;;;;;;;;;;;12.20;76.00;;;-151.14;100.00;62537.16;4995944;28;19929;-87
2023/04/24 10:47:54;;;;;;;;;;;12.20;76.00;;;-151.14;100.00;62537.16;4980351;28;19921;-87
2023/04/24 10:50:22;;;;;;;;;;;12.20;76.00;;;-151.14;100.00;62537.16;4996400;28;19943;-88
2023/04/24 10:52:52;;;;;;;;;;;12.20;76.00;;;-151.14;100.00;62537.16;4980052;28;19922;-89
2023/04/24 10:55:41;;;;;;;;;;;12.20;76.00;;;-151.14;100.00;62537.16;4995872;28;19922;-88
2023/04/24 10:58:10;;;;;;;;;;;12.20;76.00;;;-151.14;100.00;62537.16;4996274;28;20251;-89
2023/04/24 11:00:39;;;;;;;;;;;12.20;75.90;;;-151.14;100.00;62537.16;4996174;28;19928;-89
2023/04/24 11:03:08;;;;;;;;;;;12.20;75.90;;;-151.14;100.00;62537.16;4979939;28;19928;-89
2023/04/24 11:05:50;;;;;;;;;;;12.20;76.00;;;-151.14;100.00;62537.16;4995542;28;19945;-87